Chang Sheng — V3PK — position and weather

sailwx.info

Track history (hours):
 
Tides and Currents Weather Stations Pressure Air Temp Water Temp Dewpoint Dewpoint Depression Visibility Wind Speed Wind Dir Waves Ship Positions

Chang Sheng

Last reported at 2016-Dec-02 19:13 UTC. Time now 2016-Dec-05 16:41 UTC.
Position N 37°49' E 121°55'.

Length 86 m; draft 5 m.

Type: Cargo ship. MMSI: 312161000.

Date/timePositionNaut miles runAvg speedWind from/ knotsBaromVisibWave heightAir tempDewpointWater temp
2016-Dec-02 19:13N 37°49' E 121°55'6 8.8
2016-Dec-02 18:33N 37°50' E 121°48'9 8.6
2016-Dec-02 17:33N 37°52' E 121°37'9 8.5
2016-Dec-02 16:33N 37°54' E 121°26'8 8.3
2016-Dec-02 15:33N 37°55' E 121°16'9 8.5
2016-Dec-02 14:33N 37°56' E 121°05'132 9.2
2016-Dec-02 00:09N 38°49' E 118°31'810.1
2016-Dec-01 23:23N 38°50' E 118°21'8 9.5
2016-Dec-01 22:33N 38°52' E 118°11'9 9.2
2016-Dec-01 21:31N 38°56' E 118°00'9 9.1
2016-Dec-01 20:33N 38°58' E 117°49'3 2.9
2016-Dec-01 19:33N 38°59' E 117°46'0 0.0
2016-Dec-01 18:19N 38°59' E 117°46'0 0.0
2016-Dec-01 15:19N 38°59' E 117°46'0 0.0
2016-Dec-01 14:31N 38°59' E 117°46'0 0.0
2016-Dec-01 13:25N 38°59' E 117°46'0 0.0
2016-Dec-01 12:31N 38°59' E 117°46'0 0.0
2016-Dec-01 08:31N 38°59' E 117°46'0 0.0
2016-Dec-01 07:25N 38°59' E 117°46'0 0.0
2016-Dec-01 06:31N 38°59' E 117°46'0 0.0
2016-Dec-01 05:31N 38°59' E 117°46'0 0.0
2016-Dec-01 04:24N 38°59' E 117°46'4 4.5
2016-Dec-01 03:33N 38°58' E 117°50'9 8.9
2016-Dec-01 02:31N 38°57' E 118°02'0 0.1
2016-Nov-30 22:22N 38°57' E 118°03'7 8.3
2016-Nov-30 21:32N 38°54' E 118°10'164 8.6
2016-Nov-30 02:31N 37°42' E 121°19'8 8.1
2016-Nov-30 01:33N 37°37' E 121°12'3 2.5
2016-Nov-30 00:32N 37°38' E 121°08'0 0.0
2016-Nov-29 23:32N 37°38' E 121°08'0 0.0
2016-Nov-29 22:29N 37°38' E 121°08'0 0.0
2016-Nov-29 21:32N 37°38' E 121°08'0 0.0
2016-Nov-29 20:26N 37°38' E 121°08'0 0.0
2016-Nov-29 19:26N 37°38' E 121°08'0 0.0
2016-Nov-29 18:29N 37°38' E 121°08'0 0.0
2016-Nov-29 17:29N 37°38' E 121°08'0 0.0
2016-Nov-29 16:29N 37°38' E 121°08'0 0.0
2016-Nov-29 15:32N 37°38' E 121°08'0 0.0
2016-Nov-29 14:32N 37°38' E 121°08'0 0.0
2016-Nov-29 13:32N 37°38' E 121°08'0 0.0
2016-Nov-29 12:32N 37°38' E 121°08'0 0.0
2016-Nov-29 11:32N 37°38' E 121°08'0 0.0
2016-Nov-29 10:32N 37°38' E 121°08'0 0.0
2016-Nov-29 09:32N 37°38' E 121°08'0 0.0
2016-Nov-29 08:32N 37°38' E 121°08'0 0.0
2016-Nov-29 07:29N 37°38' E 121°08'0 0.0
2016-Nov-29 06:26N 37°38' E 121°08'0 0.0
2016-Nov-29 05:29N 37°38' E 121°08'0 0.0
2016-Nov-29 04:32N 37°38' E 121°08'0 0.0
2016-Nov-29 03:32N 37°38' E 121°08'0 0.0
2016-Nov-29 02:23N 37°38' E 121°08'0 0.0
2016-Nov-29 01:29N 37°38' E 121°08'0 0.0
2016-Nov-29 00:32N 37°38' E 121°08'0 0.0
2016-Nov-28 23:29N 37°38' E 121°08'0 0.0
2016-Nov-28 22:32N 37°38' E 121°08'0 0.0
2016-Nov-28 21:32N 37°38' E 121°08'0 0.0
2016-Nov-28 20:32N 37°38' E 121°08'0 0.0
2016-Nov-28 19:32N 37°38' E 121°08'0 0.0
2016-Nov-28 18:32N 37°38' E 121°08'0 0.0
2016-Nov-28 17:32N 37°38' E 121°08'0 0.0
2016-Nov-28 16:32N 37°38' E 121°08'0 0.0
2016-Nov-28 15:29N 37°38' E 121°08'0 0.0
2016-Nov-28 14:32N 37°38' E 121°08'0 0.0
2016-Nov-28 13:29N 37°38' E 121°08'0 0.0
2016-Nov-28 12:32N 37°38' E 121°08'0 0.0
2016-Nov-28 11:32N 37°38' E 121°08'0 0.0
2016-Nov-28 10:32N 37°38' E 121°08'0 0.0
2016-Nov-28 09:32N 37°38' E 121°08'0 0.0
2016-Nov-28 08:29N 37°38' E 121°08'0 0.0
2016-Nov-28 07:29N 37°38' E 121°08'0 0.0
2016-Nov-28 06:32N 37°38' E 121°08'0 0.0
2016-Nov-28 05:32N 37°38' E 121°08'0 0.0
2016-Nov-28 04:32N 37°38' E 121°08'0 0.0
2016-Nov-28 03:29N 37°38' E 121°08'3 3.0
2016-Nov-28 02:33N 37°37' E 121°12'8 8.3
2016-Nov-28 01:33N 37°38' E 121°22'5 5.0
2016-Nov-28 00:33N 37°35' E 121°27'5 4.7
2016-Nov-27 23:32N 37°39' E 121°30'0 0.0
2016-Nov-27 22:32N 37°39' E 121°30'0 0.0
2016-Nov-27 21:32N 37°39' E 121°30'0 0.0
2016-Nov-27 20:32N 37°39' E 121°30'0 0.0
2016-Nov-27 19:23N 37°39' E 121°30'0 0.0
2016-Nov-27 18:32N 37°39' E 121°30'0 0.0
2016-Nov-27 17:32N 37°39' E 121°30'0 0.0
2016-Nov-27 16:32N 37°39' E 121°30'0 0.0
2016-Nov-27 15:34N 37°39' E 121°30'0 0.0
2016-Nov-27 14:32N 37°39' E 121°30'0 0.0
2016-Nov-27 13:31N 37°39' E 121°30'0 0.0
2016-Nov-27 12:33N 37°39' E 121°30'0 0.0
2016-Nov-27 11:30N 37°39' E 121°30'0 0.0
2016-Nov-27 10:28N 37°39' E 121°30'0 0.0
2016-Nov-27 09:32N 37°39' E 121°30'0 0.0
2016-Nov-27 08:30N 37°39' E 121°30'0 0.0
2016-Nov-27 07:32N 37°39' E 121°30'1 1.3
2016-Nov-27 06:33N 37°38' E 121°30'2 2.0
2016-Nov-27 05:33N 37°40' E 121°30'7 6.9
2016-Nov-27 04:34N 37°41' E 121°39'8 7.9
2016-Nov-27 03:33N 37°41' E 121°49'25 7.9
2016-Nov-27 00:25N 37°43' E 122°20'  
Track history (hours):
 
Tides and Currents Weather Stations Pressure Air Temp Water Temp Dewpoint Dewpoint Depression Visibility Wind Speed Wind Dir Waves Ship Positions

Chang Sheng

Last reported at 2016-Dec-02 19:13 UTC. Time now 2016-Dec-05 16:41 UTC.
Position N 37°49' E 121°55'.

Length 86 m; draft 5 m.

Type: Cargo ship. MMSI: 312161000.

Date/timePositionNaut miles runAvg speedWind from/ knotsBaromVisibWave heightAir tempDewpointWater temp
2016-Dec-02 19:13N 37°49' E 121°55'6 8.8
2016-Dec-02 18:33N 37°50' E 121°48'9 8.6
2016-Dec-02 17:33N 37°52' E 121°37'9 8.5
2016-Dec-02 16:33N 37°54' E 121°26'8 8.3
2016-Dec-02 15:33N 37°55' E 121°16'9 8.5
2016-Dec-02 14:33N 37°56' E 121°05'132 9.2
2016-Dec-02 00:09N 38°49' E 118°31'810.1
2016-Dec-01 23:23N 38°50' E 118°21'8 9.5
2016-Dec-01 22:33N 38°52' E 118°11'9 9.2
2016-Dec-01 21:31N 38°56' E 118°00'9 9.1
2016-Dec-01 20:33N 38°58' E 117°49'3 2.9
2016-Dec-01 19:33N 38°59' E 117°46'0 0.0
2016-Dec-01 18:19N 38°59' E 117°46'0 0.0
2016-Dec-01 15:19N 38°59' E 117°46'0 0.0
2016-Dec-01 14:31N 38°59' E 117°46'0 0.0
2016-Dec-01 13:25N 38°59' E 117°46'0 0.0
2016-Dec-01 12:31N 38°59' E 117°46'0 0.0
2016-Dec-01 08:31N 38°59' E 117°46'0 0.0
2016-Dec-01 07:25N 38°59' E 117°46'0 0.0
2016-Dec-01 06:31N 38°59' E 117°46'0 0.0
2016-Dec-01 05:31N 38°59' E 117°46'0 0.0
2016-Dec-01 04:24N 38°59' E 117°46'4 4.5
2016-Dec-01 03:33N 38°58' E 117°50'9 8.9
2016-Dec-01 02:31N 38°57' E 118°02'0 0.1
2016-Nov-30 22:22N 38°57' E 118°03'7 8.3
2016-Nov-30 21:32N 38°54' E 118°10'164 8.6
2016-Nov-30 02:31N 37°42' E 121°19'8 8.1
2016-Nov-30 01:33N 37°37' E 121°12'3 2.5
2016-Nov-30 00:32N 37°38' E 121°08'0 0.0
2016-Nov-29 23:32N 37°38' E 121°08'0 0.0
2016-Nov-29 22:29N 37°38' E 121°08'0 0.0
2016-Nov-29 21:32N 37°38' E 121°08'0 0.0
2016-Nov-29 20:26N 37°38' E 121°08'0 0.0
2016-Nov-29 19:26N 37°38' E 121°08'0 0.0
2016-Nov-29 18:29N 37°38' E 121°08'0 0.0
2016-Nov-29 17:29N 37°38' E 121°08'0 0.0
2016-Nov-29 16:29N 37°38' E 121°08'0 0.0
2016-Nov-29 15:32N 37°38' E 121°08'0 0.0
2016-Nov-29 14:32N 37°38' E 121°08'0 0.0
2016-Nov-29 13:32N 37°38' E 121°08'0 0.0
2016-Nov-29 12:32N 37°38' E 121°08'0 0.0
2016-Nov-29 11:32N 37°38' E 121°08'0 0.0
2016-Nov-29 10:32N 37°38' E 121°08'0 0.0
2016-Nov-29 09:32N 37°38' E 121°08'0 0.0
2016-Nov-29 08:32N 37°38' E 121°08'0 0.0
2016-Nov-29 07:29N 37°38' E 121°08'0 0.0
2016-Nov-29 06:26N 37°38' E 121°08'0 0.0
2016-Nov-29 05:29N 37°38' E 121°08'0 0.0
2016-Nov-29 04:32N 37°38' E 121°08'0 0.0
2016-Nov-29 03:32N 37°38' E 121°08'0 0.0
2016-Nov-29 02:23N 37°38' E 121°08'0 0.0
2016-Nov-29 01:29N 37°38' E 121°08'0 0.0
2016-Nov-29 00:32N 37°38' E 121°08'0 0.0
2016-Nov-28 23:29N 37°38' E 121°08'0 0.0
2016-Nov-28 22:32N 37°38' E 121°08'0 0.0
2016-Nov-28 21:32N 37°38' E 121°08'0 0.0
2016-Nov-28 20:32N 37°38' E 121°08'0 0.0
2016-Nov-28 19:32N 37°38' E 121°08'0 0.0
2016-Nov-28 18:32N 37°38' E 121°08'0 0.0
2016-Nov-28 17:32N 37°38' E 121°08'0 0.0
2016-Nov-28 16:32N 37°38' E 121°08'0 0.0
2016-Nov-28 15:29N 37°38' E 121°08'0 0.0
2016-Nov-28 14:32N 37°38' E 121°08'0 0.0
2016-Nov-28 13:29N 37°38' E 121°08'0 0.0
2016-Nov-28 12:32N 37°38' E 121°08'0 0.0
2016-Nov-28 11:32N 37°38' E 121°08'0 0.0
2016-Nov-28 10:32N 37°38' E 121°08'0 0.0
2016-Nov-28 09:32N 37°38' E 121°08'0 0.0
2016-Nov-28 08:29N 37°38' E 121°08'0 0.0
2016-Nov-28 07:29N 37°38' E 121°08'0 0.0
2016-Nov-28 06:32N 37°38' E 121°08'0 0.0
2016-Nov-28 05:32N 37°38' E 121°08'0 0.0
2016-Nov-28 04:32N 37°38' E 121°08'0 0.0
2016-Nov-28 03:29N 37°38' E 121°08'3 3.0
2016-Nov-28 02:33N 37°37' E 121°12'8 8.3
2016-Nov-28 01:33N 37°38' E 121°22'5 5.0
2016-Nov-28 00:33N 37°35' E 121°27'5 4.7
2016-Nov-27 23:32N 37°39' E 121°30'0 0.0
2016-Nov-27 22:32N 37°39' E 121°30'0 0.0
2016-Nov-27 21:32N 37°39' E 121°30'0 0.0
2016-Nov-27 20:32N 37°39' E 121°30'0 0.0
2016-Nov-27 19:23N 37°39' E 121°30'0 0.0
2016-Nov-27 18:32N 37°39' E 121°30'0 0.0
2016-Nov-27 17:32N 37°39' E 121°30'0 0.0
2016-Nov-27 16:32N 37°39' E 121°30'0 0.0
2016-Nov-27 15:34N 37°39' E 121°30'0 0.0
2016-Nov-27 14:32N 37°39' E 121°30'0 0.0
2016-Nov-27 13:31N 37°39' E 121°30'0 0.0
2016-Nov-27 12:33N 37°39' E 121°30'0 0.0
2016-Nov-27 11:30N 37°39' E 121°30'0 0.0
2016-Nov-27 10:28N 37°39' E 121°30'0 0.0
2016-Nov-27 09:32N 37°39' E 121°30'0 0.0
2016-Nov-27 08:30N 37°39' E 121°30'0 0.0
2016-Nov-27 07:32N 37°39' E 121°30'1 1.3
2016-Nov-27 06:33N 37°38' E 121°30'2 2.0
2016-Nov-27 05:33N 37°40' E 121°30'7 6.9
2016-Nov-27 04:34N 37°41' E 121°39'8 7.9
2016-Nov-27 03:33N 37°41' E 121°49'25 7.9
2016-Nov-27 00:25N 37°43' E 122°20'  

Dump ship's entire track history